createdAt,value
2022-09-28T00:01:08.506Z,11.20
2022-09-28T00:03:37.150Z,11.20
2022-09-28T00:06:06.516Z,11.30
2022-09-28T00:08:35.747Z,11.30
2022-09-28T00:11:08.040Z,11.30
2022-09-28T00:13:36.464Z,11.30
2022-09-28T00:16:05.958Z,11.30
2022-09-28T00:18:34.779Z,11.30
2022-09-28T00:21:05.787Z,11.30
2022-09-28T00:23:34.442Z,11.30
2022-09-28T00:26:07.139Z,11.30
2022-09-28T00:28:35.118Z,11.30
2022-09-28T00:31:03.226Z,11.30
2022-09-28T00:33:31.243Z,11.30
2022-09-28T00:35:59.830Z,11.30
2022-09-28T00:38:29.350Z,11.30
2022-09-28T00:40:57.583Z,11.30
2022-09-28T00:43:27.111Z,11.30
2022-09-28T00:46:00.196Z,11.20
2022-09-28T00:48:30.564Z,11.20
2022-09-28T00:51:01.131Z,11.30
2022-09-28T00:53:34.773Z,11.30
2022-09-28T00:56:07.513Z,11.30
2022-09-28T00:58:40.587Z,11.30
2022-09-28T01:01:08.771Z,11.30
2022-09-28T01:03:38.710Z,11.30
2022-09-28T01:06:08.698Z,11.20
2022-09-28T01:08:37.150Z,11.20
2022-09-28T01:11:05.298Z,11.20
2022-09-28T01:13:34.486Z,11.20
2022-09-28T01:16:13.941Z,11.20
2022-09-28T01:18:51.755Z,11.20
2022-09-28T01:21:21.659Z,11.20
2022-09-28T01:24:14.017Z,11.20
2022-09-28T01:26:58.890Z,11.20
2022-09-28T01:29:39.002Z,11.20
2022-09-28T01:32:16.282Z,11.20
2022-09-28T01:34:49.564Z,11.20
2022-09-28T01:37:22.631Z,11.20
2022-09-28T01:39:52.855Z,11.20
2022-09-28T01:42:27.063Z,11.20
2022-09-28T01:44:59.513Z,11.30
2022-09-28T01:47:28.230Z,11.20
2022-09-28T01:50:01.646Z,11.20
2022-09-28T01:52:35.920Z,11.20
2022-09-28T01:55:09.717Z,11.20
2022-09-28T01:57:43.367Z,11.20
2022-09-28T02:00:14.278Z,11.30
2022-09-28T02:02:49.398Z,11.30
2022-09-28T02:05:22.006Z,11.30
2022-09-28T02:07:57.436Z,11.20
2022-09-28T02:10:29.418Z,11.10
2022-09-28T02:13:03.650Z,11.00
2022-09-28T02:15:38.361Z,11.10
2022-09-28T02:18:06.765Z,11.20
2022-09-28T02:20:37.452Z,11.20
2022-09-28T02:23:06.358Z,11.10
2022-09-28T02:25:39.386Z,11.10
2022-09-28T02:28:11.493Z,11.10
2022-09-28T02:30:41.301Z,11.10
2022-09-28T02:33:14.118Z,11.20
2022-09-28T02:35:43.423Z,11.10
2022-09-28T02:38:12.865Z,11.10
2022-09-28T02:40:42.251Z,11.10
2022-09-28T02:43:20.393Z,11.10
2022-09-28T02:45:56.992Z,11.10
2022-09-28T02:49:05.011Z,11.10
2022-09-28T02:51:47.357Z,11.20
2022-09-28T02:54:37.505Z,11.10
2022-09-28T02:57:14.604Z,11.00
2022-09-28T02:59:53.656Z,10.90
2022-09-28T03:02:29.892Z,10.90
2022-09-28T03:05:12.404Z,10.80
2022-09-28T03:07:46.041Z,10.70
2022-09-28T03:10:18.197Z,10.80
2022-09-28T03:12:48.977Z,10.90
2022-09-28T03:15:24.604Z,10.80
2022-09-28T03:17:52.752Z,10.80
2022-09-28T03:20:21.153Z,10.70
2022-09-28T03:23:12.411Z,10.70
2022-09-28T03:25:37.105Z,10.70
2022-09-28T03:28:05.120Z,10.70
2022-09-28T03:30:34.463Z,10.70
2022-09-28T03:33:03.178Z,10.60
2022-09-28T03:35:31.077Z,10.60
2022-09-28T03:37:59.140Z,10.60
2022-09-28T03:40:27.237Z,10.50
2022-09-28T03:42:55.247Z,10.50
2022-09-28T03:45:23.372Z,10.40
2022-09-28T03:47:52.651Z,10.50
2022-09-28T03:50:20.603Z,10.40
2022-09-28T03:52:48.560Z,10.40
2022-09-28T03:55:16.547Z,10.30
2022-09-28T03:57:44.588Z,10.20
2022-09-28T04:00:14.303Z,10.30
2022-09-28T04:02:42.228Z,10.20
2022-09-28T04:05:11.620Z,10.20
2022-09-28T04:07:39.565Z,10.20
2022-09-28T04:10:08.543Z,10.20
2022-09-28T04:12:36.515Z,10.10
2022-09-28T04:15:04.822Z,10.10
2022-09-28T04:17:36.461Z,10.10
2022-09-28T04:20:08.585Z,10.10
2022-09-28T04:22:38.346Z,10.10
2022-09-28T04:25:07.322Z,10.00
2022-09-28T04:27:52.878Z,9.90
2022-09-28T04:30:21.026Z,9.80
2022-09-28T04:32:49.364Z,9.80
2022-09-28T04:35:17.454Z,9.70
2022-09-28T04:37:46.871Z,9.70
2022-09-28T04:40:15.023Z,9.70
2022-09-28T04:42:43.150Z,9.80
2022-09-28T04:45:12.006Z,9.80
2022-09-28T04:47:39.943Z,9.80
2022-09-28T04:50:08.703Z,9.80
2022-09-28T04:52:38.018Z,9.80
2022-09-28T04:55:08.235Z,9.80
2022-09-28T04:57:36.566Z,9.80
2022-09-28T05:00:05.738Z,9.70
2022-09-28T05:02:33.737Z,9.60
2022-09-28T05:05:01.796Z,9.60
2022-09-28T05:07:31.215Z,9.50
2022-09-28T05:10:00.682Z,9.50
2022-09-28T05:12:30.082Z,9.50
2022-09-28T05:14:58.146Z,9.50
2022-09-28T05:17:26.125Z,9.50
2022-09-28T05:19:54.157Z,9.50
2022-09-28T05:22:22.137Z,9.40
2022-09-28T05:24:50.133Z,9.30
2022-09-28T05:27:18.201Z,9.30
2022-09-28T05:29:47.638Z,9.30
2022-09-28T05:32:16.844Z,9.40
2022-09-28T05:34:44.821Z,9.40
2022-09-28T05:37:12.725Z,9.50
2022-09-28T05:39:40.689Z,9.50
2022-09-28T05:42:08.876Z,9.50
2022-09-28T05:44:38.395Z,9.50
2022-09-28T05:47:07.825Z,9.50
2022-09-28T05:49:35.781Z,9.40
2022-09-28T05:52:03.917Z,9.40
2022-09-28T05:54:31.885Z,9.40
2022-09-28T05:56:59.981Z,9.40
2022-09-28T05:59:29.988Z,9.40
2022-09-28T06:01:57.938Z,9.40
2022-09-28T06:04:27.542Z,9.50
2022-09-28T06:06:55.581Z,9.60
2022-09-28T06:09:25.985Z,9.60
2022-09-28T06:11:54.542Z,9.80
2022-09-28T06:14:22.677Z,9.80
2022-09-28T06:16:50.963Z,9.90
2022-09-28T06:19:19.301Z,9.90
2022-09-28T06:21:48.632Z,9.80
2022-09-28T06:24:16.889Z,9.90
2022-09-28T06:26:44.929Z,10.00
2022-09-28T06:29:19.228Z,10.00
2022-09-28T06:31:48.030Z,10.00
2022-09-28T06:34:16.194Z,10.00
2022-09-28T06:36:44.127Z,9.90
2022-09-28T06:39:13.505Z,9.80
2022-09-28T06:41:42.133Z,9.80
2022-09-28T06:44:10.233Z,9.90
2022-09-28T06:46:39.356Z,10.00
2022-09-28T06:49:09.277Z,10.00
2022-09-28T06:51:37.711Z,10.00
2022-09-28T06:54:06.152Z,10.00
2022-09-28T06:56:35.524Z,10.00
2022-09-28T06:59:03.549Z,10.10
2022-09-28T07:01:31.799Z,10.10
2022-09-28T07:04:01.979Z,10.20
2022-09-28T07:06:31.524Z,10.20
2022-09-28T07:09:14.374Z,10.30
2022-09-28T07:11:50.192Z,10.40
2022-09-28T07:14:36.243Z,10.40
2022-09-28T07:17:13.811Z,10.40
2022-09-28T07:19:42.400Z,10.50
2022-09-28T07:22:18.519Z,10.50
2022-09-28T07:24:47.886Z,10.50
2022-09-28T07:27:17.525Z,10.50
2022-09-28T07:29:45.434Z,10.30
2022-09-28T07:32:13.393Z,10.30
2022-09-28T07:34:43.776Z,10.40
2022-09-28T07:37:13.287Z,10.50
2022-09-28T07:39:55.216Z,10.50
2022-09-28T07:42:24.909Z,10.60
2022-09-28T07:44:52.891Z,10.70
2022-09-28T07:47:29.644Z,10.70
2022-09-28T07:49:58.910Z,10.80
2022-09-28T07:52:28.762Z,10.80
2022-09-28T07:54:57.200Z,10.70
2022-09-28T07:57:26.494Z,10.70
2022-09-28T07:59:54.639Z,10.70
2022-09-28T08:02:23.132Z,10.60
2022-09-28T08:04:51.536Z,10.70
2022-09-28T08:07:23.719Z,10.70
2022-09-28T08:09:52.554Z,10.80
2022-09-28T08:12:21.405Z,10.90
2022-09-28T08:14:52.220Z,11.00
2022-09-28T08:17:20.213Z,11.10
2022-09-28T08:20:05.785Z,11.20
2022-09-28T08:22:34.313Z,11.20
2022-09-28T08:25:02.384Z,11.30
2022-09-28T08:27:30.340Z,11.20
2022-09-28T08:29:59.665Z,11.20
2022-09-28T08:32:29.705Z,11.20
2022-09-28T08:34:57.652Z,11.20
2022-09-28T08:37:25.622Z,11.20
2022-09-28T08:39:53.886Z,11.30
2022-09-28T08:42:35.850Z,11.30
2022-09-28T08:45:12.249Z,11.30
2022-09-28T08:48:09.758Z,11.30
2022-09-28T08:50:48.276Z,11.30
2022-09-28T08:53:35.420Z,11.30
2022-09-28T08:56:08.636Z,11.40
2022-09-28T08:58:41.859Z,11.50
2022-09-28T09:01:16.470Z,11.70
2022-09-28T09:03:45.570Z,11.80
2022-09-28T09:06:25.455Z,11.80
2022-09-28T09:09:04.315Z,11.90
2022-09-28T09:11:48.834Z,12.00
2022-09-28T09:14:34.215Z,12.00
2022-09-28T09:17:14.266Z,12.00
2022-09-28T09:19:51.474Z,12.10
2022-09-28T09:22:29.238Z,12.20
2022-09-28T09:25:05.939Z,12.20
2022-09-28T09:27:46.413Z,12.30
2022-09-28T09:30:19.733Z,12.40
2022-09-28T09:33:11.398Z,12.30
2022-09-28T09:35:59.401Z,12.30
2022-09-28T09:38:47.042Z,12.40
2022-09-28T09:41:26.233Z,12.50
2022-09-28T09:44:20.219Z,12.60
2022-09-28T09:46:52.719Z,12.60
2022-09-28T09:49:24.984Z,12.60
2022-09-28T09:51:59.977Z,12.50
2022-09-28T09:54:32.521Z,12.40
2022-09-28T09:57:06.946Z,12.40
2022-09-28T09:59:39.558Z,12.40
2022-09-28T10:02:18.980Z,12.50
2022-09-28T10:04:50.875Z,12.60
2022-09-28T10:07:24.331Z,12.70
2022-09-28T10:09:56.255Z,12.80
2022-09-28T10:12:25.510Z,13.00
2022-09-28T10:14:55.325Z,13.00
2022-09-28T10:17:27.304Z,13.10
2022-09-28T10:19:57.775Z,13.20
2022-09-28T10:22:28.383Z,13.10
2022-09-28T10:24:57.493Z,13.20
2022-09-28T10:27:28.949Z,13.30
2022-09-28T10:29:59.797Z,13.60
2022-09-28T10:32:37.100Z,14.00
2022-09-28T10:35:23.567Z,14.20
2022-09-28T10:37:55.561Z,14.80
2022-09-28T10:40:38.782Z,15.10
2022-09-28T10:43:18.856Z,15.20
2022-09-28T10:45:47.117Z,15.40
2022-09-28T10:48:20.251Z,15.90
2022-09-28T10:51:03.731Z,16.20
2022-09-28T10:53:31.914Z,16.40
2022-09-28T10:56:02.860Z,16.50
2022-09-28T10:58:39.320Z,16.20
2022-09-28T11:01:12.009Z,15.90
2022-09-28T11:03:51.056Z,15.50
2022-09-28T11:06:27.897Z,15.40
2022-09-28T11:08:58.578Z,15.70
2022-09-28T11:11:27.178Z,16.30
2022-09-28T11:14:00.461Z,16.80
2022-09-28T11:16:30.182Z,17.10
2022-09-28T11:18:59.054Z,17.40
2022-09-28T11:21:32.151Z,17.80
2022-09-28T11:24:08.293Z,18.10
2022-09-28T11:26:40.795Z,18.20
2022-09-28T11:29:21.359Z,18.20
2022-09-28T11:31:49.559Z,18.40
2022-09-28T11:34:31.495Z,18.40
2022-09-28T11:37:41.216Z,17.90
2022-09-28T11:40:21.335Z,17.00
2022-09-28T11:42:54.356Z,16.50
2022-09-28T11:45:38.398Z,16.30
2022-09-28T11:48:08.969Z,16.20
2022-09-28T11:50:47.731Z,16.30
2022-09-28T11:53:23.339Z,16.60
2022-09-28T11:55:56.794Z,16.80
2022-09-28T11:58:30.980Z,16.90
2022-09-28T12:01:03.796Z,16.90
2022-09-28T12:03:38.670Z,16.90
2022-09-28T12:06:13.409Z,17.30
2022-09-28T12:08:47.102Z,17.70
2022-09-28T12:11:18.767Z,17.60
2022-09-28T12:13:49.252Z,17.30
2022-09-28T12:16:53.189Z,17.20
2022-09-28T12:19:19.621Z,16.80
2022-09-28T12:21:52.362Z,16.20
2022-09-28T12:24:26.971Z,15.90
2022-09-28T12:26:59.212Z,15.60
2022-09-28T12:29:30.948Z,15.40
2022-09-28T12:32:07.074Z,15.40
2022-09-28T12:34:35.072Z,15.20
2022-09-28T12:37:14.816Z,15.00
2022-09-28T12:39:57.931Z,15.00
2022-09-28T12:42:47.176Z,14.90
2022-09-28T12:45:47.916Z,14.70
2022-09-28T12:48:45.933Z,14.70
2022-09-28T12:51:31.872Z,14.70
2022-09-28T12:54:07.851Z,14.80
2022-09-28T12:56:42.727Z,14.70
2022-09-28T12:59:22.108Z,14.60
2022-09-28T13:02:28.594Z,14.60
2022-09-28T13:05:13.280Z,14.70
2022-09-28T13:07:50.945Z,14.70
2022-09-28T13:10:32.594Z,14.70
2022-09-28T13:13:18.146Z,14.80
2022-09-28T13:15:53.141Z,15.00
2022-09-28T13:18:27.550Z,15.20
2022-09-28T13:21:14.911Z,15.40
2022-09-28T13:23:44.904Z,15.50
2022-09-28T13:26:20.231Z,15.40
2022-09-28T13:28:52.034Z,15.60
2022-09-28T13:31:22.353Z,15.70
2022-09-28T13:33:52.071Z,15.80
2022-09-28T13:36:36.432Z,15.90
2022-09-28T13:39:04.885Z,15.80
2022-09-28T13:41:34.195Z,15.80
2022-09-28T13:44:40.567Z,15.80
2022-09-28T13:47:21.223Z,15.70
2022-09-28T13:50:01.478Z,15.80
2022-09-28T13:52:45.004Z,15.90
2022-09-28T13:55:24.782Z,15.90
2022-09-28T13:57:57.798Z,15.70
2022-09-28T14:00:31.423Z,15.50
2022-09-28T14:03:05.127Z,15.50
2022-09-28T14:05:47.993Z,15.50
2022-09-28T14:08:29.713Z,15.50
2022-09-28T14:10:58.710Z,15.40
2022-09-28T14:14:01.749Z,15.20
2022-09-28T14:16:32.902Z,15.10
2022-09-28T14:19:04.593Z,15.00
2022-09-28T14:22:02.291Z,14.90
2022-09-28T14:24:55.973Z,14.80
2022-09-28T14:28:02.725Z,14.70
2022-09-28T14:30:47.809Z,14.60
2022-09-28T14:33:26.112Z,14.60
2022-09-28T14:35:57.496Z,14.40
2022-09-28T14:38:47.297Z,14.30
2022-09-28T14:41:31.343Z,14.30
2022-09-28T14:44:05.248Z,14.30
2022-09-28T14:46:43.659Z,14.20
2022-09-28T14:49:47.635Z,14.10
2022-09-28T14:52:37.955Z,14.10
2022-09-28T14:55:14.791Z,14.10
2022-09-28T14:57:43.628Z,14.10
2022-09-28T15:00:21.268Z,14.10
2022-09-28T15:02:52.572Z,14.10
2022-09-28T15:05:25.525Z,14.20
2022-09-28T15:07:55.121Z,14.20
2022-09-28T15:10:28.231Z,14.20
2022-09-28T15:12:57.651Z,14.20
2022-09-28T15:15:29.530Z,14.20
2022-09-28T15:18:14.288Z,14.30
2022-09-28T15:20:47.786Z,14.20
2022-09-28T15:23:37.341Z,14.20
2022-09-28T15:26:07.127Z,14.20
2022-09-28T15:28:36.288Z,14.10
2022-09-28T15:31:06.211Z,14.10
2022-09-28T15:33:53.350Z,14.00
2022-09-28T15:36:26.091Z,14.00
2022-09-28T15:38:58.883Z,13.90
2022-09-28T15:41:27.514Z,13.90
2022-09-28T15:44:29.938Z,13.80
2022-09-28T15:47:14.843Z,13.80
2022-09-28T15:49:47.582Z,13.90
2022-09-28T15:52:28.923Z,13.90
2022-09-28T15:54:57.289Z,14.00
2022-09-28T15:57:38.081Z,13.90
2022-09-28T16:00:22.985Z,14.00
2022-09-28T16:03:02.290Z,14.00
2022-09-28T16:05:37.524Z,14.00
2022-09-28T16:08:14.881Z,14.00
2022-09-28T16:10:54.968Z,13.70
2022-09-28T16:13:23.935Z,13.20
2022-09-28T16:15:58.132Z,13.00
2022-09-28T16:18:27.632Z,12.80
2022-09-28T16:20:57.197Z,12.60
2022-09-28T16:23:30.563Z,12.40
2022-09-28T16:26:02.551Z,12.20
2022-09-28T16:28:51.727Z,12.10
2022-09-28T16:31:43.204Z,11.90
2022-09-28T16:34:20.798Z,11.80
2022-09-28T16:36:50.334Z,11.70
2022-09-28T16:39:20.725Z,11.60
2022-09-28T16:41:52.641Z,11.60
2022-09-28T16:44:24.661Z,11.60
2022-09-28T16:46:55.734Z,11.50
2022-09-28T16:49:26.327Z,11.30
2022-09-28T16:51:54.710Z,11.20
2022-09-28T16:54:43.225Z,11.10
2022-09-28T16:57:13.542Z,11.00
2022-09-28T16:59:42.603Z,10.80
2022-09-28T17:05:11.157Z,10.90
2022-09-28T17:07:39.396Z,10.80
2022-09-28T17:10:16.985Z,10.80
2022-09-28T17:12:45.016Z,10.90
2022-09-28T17:15:15.720Z,10.80
2022-09-28T17:17:44.047Z,10.70
2022-09-28T17:20:22.010Z,10.70
2022-09-28T17:22:50.084Z,10.70
2022-09-28T17:25:19.579Z,10.90
2022-09-28T17:27:48.921Z,11.00
2022-09-28T17:30:20.237Z,11.20
2022-09-28T17:32:51.530Z,11.30
2022-09-28T17:35:25.262Z,11.40
2022-09-28T17:37:53.576Z,11.50
2022-09-28T17:40:25.684Z,11.60
2022-09-28T17:42:55.131Z,11.60
2022-09-28T17:45:24.223Z,11.50
2022-09-28T17:47:52.173Z,11.50
2022-09-28T17:50:23.603Z,11.50
2022-09-28T17:52:53.184Z,11.50
2022-09-28T17:55:24.557Z,11.50
2022-09-28T17:57:52.528Z,11.50
2022-09-28T18:00:20.819Z,11.50
2022-09-28T18:02:48.811Z,11.50
2022-09-28T18:05:16.863Z,11.30
2022-09-28T18:07:47.804Z,11.30
2022-09-28T18:10:19.558Z,11.30
2022-09-28T18:12:49.168Z,11.40
2022-09-28T18:15:18.392Z,11.40
2022-09-28T18:17:46.541Z,11.40
2022-09-28T18:20:15.333Z,11.40
2022-09-28T18:22:43.236Z,11.50
2022-09-28T18:25:11.823Z,11.50
2022-09-28T18:27:39.773Z,11.50
2022-09-28T18:30:10.107Z,11.30
2022-09-28T18:32:38.242Z,11.40
2022-09-28T18:35:08.418Z,11.40
2022-09-28T18:37:37.379Z,11.30
2022-09-28T18:40:05.954Z,11.20
2022-09-28T18:42:35.618Z,11.20
2022-09-28T18:45:03.934Z,11.30
2022-09-28T18:47:33.647Z,11.30
2022-09-28T18:50:01.542Z,11.30
2022-09-28T18:52:29.546Z,11.40
2022-09-28T18:54:57.448Z,11.40
2022-09-28T18:57:25.331Z,11.40
2022-09-28T18:59:53.291Z,11.40
2022-09-28T19:02:21.419Z,11.50
2022-09-28T19:04:50.886Z,11.50
2022-09-28T19:07:18.884Z,11.40
2022-09-28T19:09:46.832Z,11.50
2022-09-28T19:12:15.774Z,11.40
2022-09-28T19:14:43.788Z,11.30
2022-09-28T19:17:12.028Z,11.20
2022-09-28T19:19:42.690Z,11.10
2022-09-28T19:22:13.409Z,11.10
2022-09-28T19:24:41.340Z,11.10
2022-09-28T19:27:09.415Z,11.20
2022-09-28T19:29:37.373Z,11.20
2022-09-28T19:32:05.445Z,11.30
2022-09-28T19:34:33.396Z,11.30
2022-09-28T19:37:03.816Z,11.30
2022-09-28T19:39:33.184Z,11.30
2022-09-28T19:42:01.293Z,11.30
2022-09-28T19:44:31.233Z,11.30
2022-09-28T19:47:00.623Z,11.40
2022-09-28T19:49:33.054Z,11.40
2022-09-28T19:52:12.550Z,11.40
2022-09-28T19:54:44.856Z,11.40
2022-09-28T19:57:15.682Z,11.40
2022-09-28T19:59:44.096Z,11.50
2022-09-28T20:02:13.307Z,11.50
2022-09-28T20:04:41.359Z,11.50
2022-09-28T20:07:09.451Z,11.50
2022-09-28T20:09:37.384Z,11.40
2022-09-28T20:12:06.813Z,11.40
2022-09-28T20:14:39.524Z,11.50
2022-09-28T20:17:08.401Z,11.50
2022-09-28T20:19:36.454Z,11.50
2022-09-28T20:22:05.057Z,11.50
2022-09-28T20:24:33.545Z,11.40
2022-09-28T20:27:02.527Z,11.30
2022-09-28T20:29:33.522Z,11.20
2022-09-28T20:32:02.222Z,11.10
2022-09-28T20:34:30.345Z,11.20
2022-09-28T20:36:58.299Z,11.20
2022-09-28T20:39:26.360Z,11.10
2022-09-28T20:41:55.034Z,11.10
2022-09-28T20:44:22.974Z,11.00
2022-09-28T20:46:52.748Z,11.00
2022-09-28T20:49:20.699Z,11.00
2022-09-28T20:51:48.688Z,11.00
2022-09-28T20:54:16.855Z,11.10
2022-09-28T20:56:44.851Z,11.10
2022-09-28T20:59:13.613Z,11.10
2022-09-28T21:01:41.943Z,11.10
2022-09-28T21:04:12.526Z,11.10
2022-09-28T21:06:41.910Z,11.10
2022-09-28T21:09:11.529Z,11.10
2022-09-28T21:11:40.288Z,11.10
2022-09-28T21:14:09.648Z,11.10
2022-09-28T21:16:37.662Z,11.10
2022-09-28T21:19:05.739Z,11.00
2022-09-28T21:21:35.057Z,11.00
2022-09-28T21:24:03.295Z,11.00
2022-09-28T21:26:32.694Z,11.00
2022-09-28T21:29:02.276Z,11.00
2022-09-28T21:31:32.718Z,11.00
2022-09-28T21:34:00.817Z,11.00
2022-09-28T21:36:28.814Z,11.00
2022-09-28T21:38:58.348Z,10.90
2022-09-28T21:41:26.838Z,10.80
2022-09-28T21:43:54.845Z,10.90
2022-09-28T21:46:23.145Z,10.80
2022-09-28T21:48:53.709Z,10.80
2022-09-28T21:51:21.740Z,10.90
2022-09-28T21:53:50.219Z,10.90
2022-09-28T21:56:19.585Z,10.90
2022-09-28T21:58:47.944Z,10.90
2022-09-28T22:01:18.280Z,10.90
2022-09-28T22:03:47.932Z,10.80
2022-09-28T22:06:17.072Z,10.80
2022-09-28T22:08:45.480Z,10.80
2022-09-28T22:11:15.542Z,10.70
2022-09-28T22:13:46.626Z,10.70
2022-09-28T22:16:16.254Z,10.60
2022-09-28T22:18:44.602Z,10.40
2022-09-28T22:21:15.112Z,10.20
2022-09-28T22:23:43.201Z,10.20
2022-09-28T22:26:13.848Z,10.10
2022-09-28T22:28:49.497Z,10.20
2022-09-28T22:31:19.268Z,10.20
2022-09-28T22:33:47.321Z,10.00
2022-09-28T22:36:17.097Z,10.10
2022-09-28T22:38:45.750Z,10.10
2022-09-28T22:41:15.885Z,10.20
2022-09-28T22:43:44.379Z,10.20
2022-09-28T22:46:15.525Z,10.30
2022-09-28T22:48:47.030Z,10.30
2022-09-28T22:51:15.159Z,10.40
2022-09-28T22:53:43.181Z,10.50
2022-09-28T22:56:17.537Z,10.40
2022-09-28T22:58:47.168Z,10.50
2022-09-28T23:01:18.579Z,10.40
2022-09-28T23:03:47.149Z,10.50
2022-09-28T23:06:17.638Z,10.40
2022-09-28T23:08:47.287Z,10.50
2022-09-28T23:11:15.879Z,10.50
2022-09-28T23:13:44.040Z,10.50
2022-09-28T23:16:14.851Z,10.50
2022-09-28T23:18:44.411Z,10.50
2022-09-28T23:21:15.262Z,10.30
2022-09-28T23:23:43.631Z,10.10
2022-09-28T23:26:12.695Z,10.10
2022-09-28T23:28:40.650Z,10.20
2022-09-28T23:31:10.149Z,10.10
2022-09-28T23:33:38.185Z,10.00
2022-09-28T23:36:08.693Z,10.00
2022-09-28T23:38:36.815Z,10.10
2022-09-28T23:41:04.850Z,10.00
2022-09-28T23:43:32.772Z,10.10
2022-09-28T23:46:00.884Z,10.20
2022-09-28T23:48:28.875Z,10.20
2022-09-28T23:50:56.859Z,10.30
2022-09-28T23:53:26.346Z,10.20
2022-09-28T23:55:54.896Z,10.10
2022-09-28T23:58:22.914Z,10.00
